sensor_id;sensor_type;location;lat;lon;timestamp;temperature;humidity
15115;DHT22;7658;51.456;7.622;2022-07-10T00:00:31;14.70;99.90
15115;DHT22;7658;51.456;7.622;2022-07-10T00:02:57;14.60;99.90
15115;DHT22;7658;51.456;7.622;2022-07-10T00:05:24;14.60;99.90
15115;DHT22;7658;51.456;7.622;2022-07-10T00:07:50;14.60;99.90
15115;DHT22;7658;51.456;7.622;2022-07-10T00:10:17;14.60;99.90
15115;DHT22;7658;51.456;7.622;2022-07-10T00:12:45;14.60;99.90
15115;DHT22;7658;51.456;7.622;2022-07-10T00:15:11;14.60;99.90
15115;DHT22;7658;51.456;7.622;2022-07-10T00:17:37;14.60;99.90
15115;DHT22;7658;51.456;7.622;2022-07-10T00:20:05;14.60;99.90
15115;DHT22;7658;51.456;7.622;2022-07-10T00:22:33;14.60;99.90
15115;DHT22;7658;51.456;7.622;2022-07-10T00:25:04;14.60;99.90
15115;DHT22;7658;51.456;7.622;2022-07-10T00:27:30;14.60;99.90
15115;DHT22;7658;51.456;7.622;2022-07-10T00:29:56;14.60;99.90
15115;DHT22;7658;51.456;7.622;2022-07-10T00:32:22;14.60;99.90
15115;DHT22;7658;51.456;7.622;2022-07-10T00:34:48;14.50;99.90
15115;DHT22;7658;51.456;7.622;2022-07-10T00:37:14;14.50;99.90
15115;DHT22;7658;51.456;7.622;2022-07-10T00:39:39;14.50;99.90
15115;DHT22;7658;51.456;7.622;2022-07-10T00:42:09;14.50;99.90
15115;DHT22;7658;51.456;7.622;2022-07-10T00:44:37;14.40;99.90
15115;DHT22;7658;51.456;7.622;2022-07-10T00:47:08;14.40;99.90
15115;DHT22;7658;51.456;7.622;2022-07-10T00:49:35;14.40;99.90
15115;DHT22;7658;51.456;7.622;2022-07-10T00:52:10;14.30;99.90
15115;DHT22;7658;51.456;7.622;2022-07-10T00:54:37;14.40;99.90
15115;DHT22;7658;51.456;7.622;2022-07-10T00:57:04;14.30;99.90
15115;DHT22;7658;51.456;7.622;2022-07-10T00:59:31;14.30;99.90
15115;DHT22;7658;51.456;7.622;2022-07-10T01:01:57;14.30;99.90
15115;DHT22;7658;51.456;7.622;2022-07-10T01:04:23;14.30;99.90
15115;DHT22;7658;51.456;7.622;2022-07-10T01:06:50;14.30;99.90
15115;DHT22;7658;51.456;7.622;2022-07-10T01:09:16;14.40;99.90
15115;DHT22;7658;51.456;7.622;2022-07-10T01:11:42;14.40;99.90
15115;DHT22;7658;51.456;7.622;2022-07-10T01:14:08;14.40;99.90
15115;DHT22;7658;51.456;7.622;2022-07-10T01:16:34;14.30;99.90
15115;DHT22;7658;51.456;7.622;2022-07-10T01:19:00;14.40;99.90
15115;DHT22;7658;51.456;7.622;2022-07-10T01:21:27;14.30;99.90
15115;DHT22;7658;51.456;7.622;2022-07-10T01:23:53;14.30;99.90
15115;DHT22;7658;51.456;7.622;2022-07-10T01:26:20;14.30;99.90
15115;DHT22;7658;51.456;7.622;2022-07-10T01:28:51;14.20;99.90
15115;DHT22;7658;51.456;7.622;2022-07-10T01:31:18;14.20;99.90
15115;DHT22;7658;51.456;7.622;2022-07-10T01:33:45;14.10;99.90
15115;DHT22;7658;51.456;7.622;2022-07-10T01:36:11;14.20;99.90
15115;DHT22;7658;51.456;7.622;2022-07-10T01:38:38;14.10;99.90
15115;DHT22;7658;51.456;7.622;2022-07-10T01:41:04;14.10;99.90
15115;DHT22;7658;51.456;7.622;2022-07-10T01:43:30;14.20;99.90
15115;DHT22;7658;51.456;7.622;2022-07-10T01:45:56;14.20;99.90
15115;DHT22;7658;51.456;7.622;2022-07-10T01:48:21;14.20;99.90
15115;DHT22;7658;51.456;7.622;2022-07-10T01:50:47;14.20;99.90
15115;DHT22;7658;51.456;7.622;2022-07-10T01:53:13;14.10;99.90
15115;DHT22;7658;51.456;7.622;2022-07-10T01:55:39;14.10;99.90
15115;DHT22;7658;51.456;7.622;2022-07-10T01:58:04;14.10;99.90
15115;DHT22;7658;51.456;7.622;2022-07-10T02:00:30;14.00;99.90
15115;DHT22;7658;51.456;7.622;2022-07-10T02:02:56;14.00;99.90
15115;DHT22;7658;51.456;7.622;2022-07-10T02:05:40;14.00;99.90
15115;DHT22;7658;51.456;7.622;2022-07-10T02:08:06;14.00;99.90
15115;DHT22;7658;51.456;7.622;2022-07-10T02:10:32;14.00;99.90
15115;DHT22;7658;51.456;7.622;2022-07-10T02:12:58;14.00;99.90
15115;DHT22;7658;51.456;7.622;2022-07-10T02:15:24;14.00;99.90
15115;DHT22;7658;51.456;7.622;2022-07-10T02:17:49;14.00;99.90
15115;DHT22;7658;51.456;7.622;2022-07-10T02:20:15;13.90;99.90
15115;DHT22;7658;51.456;7.622;2022-07-10T02:22:41;13.90;99.90
15115;DHT22;7658;51.456;7.622;2022-07-10T02:25:08;13.90;99.90
15115;DHT22;7658;51.456;7.622;2022-07-10T02:27:33;13.90;99.90
15115;DHT22;7658;51.456;7.622;2022-07-10T02:29:59;13.90;99.90
15115;DHT22;7658;51.456;7.622;2022-07-10T02:32:25;13.90;99.90
15115;DHT22;7658;51.456;7.622;2022-07-10T02:34:52;13.90;99.90
15115;DHT22;7658;51.456;7.622;2022-07-10T02:37:17;13.90;99.90
15115;DHT22;7658;51.456;7.622;2022-07-10T02:39:43;13.90;99.90
15115;DHT22;7658;51.456;7.622;2022-07-10T02:42:09;13.90;99.90
15115;DHT22;7658;51.456;7.622;2022-07-10T02:44:34;13.90;99.90
15115;DHT22;7658;51.456;7.622;2022-07-10T02:47:00;13.90;99.90
15115;DHT22;7658;51.456;7.622;2022-07-10T02:49:26;13.90;99.90
15115;DHT22;7658;51.456;7.622;2022-07-10T02:51:51;13.80;99.90
15115;DHT22;7658;51.456;7.622;2022-07-10T02:54:18;13.90;99.90
15115;DHT22;7658;51.456;7.622;2022-07-10T02:56:44;13.80;99.90
15115;DHT22;7658;51.456;7.622;2022-07-10T02:59:09;13.80;99.90
15115;DHT22;7658;51.456;7.622;2022-07-10T03:01:35;13.80;99.90
15115;DHT22;7658;51.456;7.622;2022-07-10T03:04:01;13.80;99.90
15115;DHT22;7658;51.456;7.622;2022-07-10T03:06:27;13.80;99.90
15115;DHT22;7658;51.456;7.622;2022-07-10T03:08:53;13.80;99.90
15115;DHT22;7658;51.456;7.622;2022-07-10T03:11:18;13.80;99.90
15115;DHT22;7658;51.456;7.622;2022-07-10T03:13:44;13.80;99.90
15115;DHT22;7658;51.456;7.622;2022-07-10T03:16:10;13.80;99.90
15115;DHT22;7658;51.456;7.622;2022-07-10T03:18:35;13.80;99.90
15115;DHT22;7658;51.456;7.622;2022-07-10T03:21:01;13.80;99.90
15115;DHT22;7658;51.456;7.622;2022-07-10T03:23:27;13.80;99.90
15115;DHT22;7658;51.456;7.622;2022-07-10T03:25:53;13.70;99.90
15115;DHT22;7658;51.456;7.622;2022-07-10T03:28:18;13.80;99.90
15115;DHT22;7658;51.456;7.622;2022-07-10T03:30:44;13.70;99.90
15115;DHT22;7658;51.456;7.622;2022-07-10T03:33:10;13.70;99.90
15115;DHT22;7658;51.456;7.622;2022-07-10T03:35:36;13.70;99.90
15115;DHT22;7658;51.456;7.622;2022-07-10T03:38:01;13.70;99.90
15115;DHT22;7658;51.456;7.622;2022-07-10T03:40:27;13.70;99.90
15115;DHT22;7658;51.456;7.622;2022-07-10T03:42:53;13.70;99.90
15115;DHT22;7658;51.456;7.622;2022-07-10T03:45:19;13.70;99.90
15115;DHT22;7658;51.456;7.622;2022-07-10T03:47:45;13.70;99.90
15115;DHT22;7658;51.456;7.622;2022-07-10T03:50:11;13.70;99.90
15115;DHT22;7658;51.456;7.622;2022-07-10T03:52:37;13.70;99.90
15115;DHT22;7658;51.456;7.622;2022-07-10T03:55:03;13.70;99.90
15115;DHT22;7658;51.456;7.622;2022-07-10T03:57:29;13.60;99.90
15115;DHT22;7658;51.456;7.622;2022-07-10T04:00:13;13.60;99.90
15115;DHT22;7658;51.456;7.622;2022-07-10T04:02:39;13.60;99.90
15115;DHT22;7658;51.456;7.622;2022-07-10T04:05:08;13.60;99.90
15115;DHT22;7658;51.456;7.622;2022-07-10T04:07:36;13.70;99.90
15115;DHT22;7658;51.456;7.622;2022-07-10T04:10:03;13.60;99.90
15115;DHT22;7658;51.456;7.622;2022-07-10T04:12:28;13.70;99.90
15115;DHT22;7658;51.456;7.622;2022-07-10T04:14:54;13.70;99.90
15115;DHT22;7658;51.456;7.622;2022-07-10T04:17:21;13.60;99.90
15115;DHT22;7658;51.456;7.622;2022-07-10T04:19:47;13.60;99.90
15115;DHT22;7658;51.456;7.622;2022-07-10T04:22:13;13.70;99.90
15115;DHT22;7658;51.456;7.622;2022-07-10T04:24:39;13.70;99.90
15115;DHT22;7658;51.456;7.622;2022-07-10T04:27:05;13.70;99.90
15115;DHT22;7658;51.456;7.622;2022-07-10T04:29:32;13.70;99.90
15115;DHT22;7658;51.456;7.622;2022-07-10T04:31:58;13.70;99.90
15115;DHT22;7658;51.456;7.622;2022-07-10T04:34:23;13.80;99.90
15115;DHT22;7658;51.456;7.622;2022-07-10T04:36:50;13.80;99.90
15115;DHT22;7658;51.456;7.622;2022-07-10T04:39:16;13.80;99.90
15115;DHT22;7658;51.456;7.622;2022-07-10T04:41:41;13.80;99.90
15115;DHT22;7658;51.456;7.622;2022-07-10T04:44:07;13.80;99.90
15115;DHT22;7658;51.456;7.622;2022-07-10T04:46:33;13.80;99.90
15115;DHT22;7658;51.456;7.622;2022-07-10T04:48:58;13.80;99.90
15115;DHT22;7658;51.456;7.622;2022-07-10T04:51:25;13.80;99.90
15115;DHT22;7658;51.456;7.622;2022-07-10T04:53:51;13.80;99.90
15115;DHT22;7658;51.456;7.622;2022-07-10T04:56:16;13.80;99.90
15115;DHT22;7658;51.456;7.622;2022-07-10T04:58:42;13.90;99.90
15115;DHT22;7658;51.456;7.622;2022-07-10T05:01:08;13.90;99.90
15115;DHT22;7658;51.456;7.622;2022-07-10T05:03:34;13.90;99.90
15115;DHT22;7658;51.456;7.622;2022-07-10T05:05:59;13.90;99.90
15115;DHT22;7658;51.456;7.622;2022-07-10T05:08:25;13.90;99.90
15115;DHT22;7658;51.456;7.622;2022-07-10T05:10:51;13.90;99.90
15115;DHT22;7658;51.456;7.622;2022-07-10T05:13:17;13.90;99.90
15115;DHT22;7658;51.456;7.622;2022-07-10T05:15:44;13.90;99.90
15115;DHT22;7658;51.456;7.622;2022-07-10T05:18:10;13.90;99.90
15115;DHT22;7658;51.456;7.622;2022-07-10T05:20:36;13.90;99.90
15115;DHT22;7658;51.456;7.622;2022-07-10T05:23:03;13.90;99.90
15115;DHT22;7658;51.456;7.622;2022-07-10T05:25:29;14.00;99.90
15115;DHT22;7658;51.456;7.622;2022-07-10T05:27:56;14.10;99.90
15115;DHT22;7658;51.456;7.622;2022-07-10T05:30:22;14.10;99.90
15115;DHT22;7658;51.456;7.622;2022-07-10T05:32:48;14.10;99.90
15115;DHT22;7658;51.456;7.622;2022-07-10T05:35:14;14.10;99.90
15115;DHT22;7658;51.456;7.622;2022-07-10T05:37:41;14.20;99.90
15115;DHT22;7658;51.456;7.622;2022-07-10T05:40:07;14.20;99.90
15115;DHT22;7658;51.456;7.622;2022-07-10T05:42:33;14.20;99.90
15115;DHT22;7658;51.456;7.622;2022-07-10T05:44:59;14.20;99.90
15115;DHT22;7658;51.456;7.622;2022-07-10T05:47:25;14.30;99.90
15115;DHT22;7658;51.456;7.622;2022-07-10T05:49:51;14.30;99.90
15115;DHT22;7658;51.456;7.622;2022-07-10T05:52:16;14.30;99.90
15115;DHT22;7658;51.456;7.622;2022-07-10T05:54:42;14.30;99.90
15115;DHT22;7658;51.456;7.622;2022-07-10T05:57:08;14.30;99.90
15115;DHT22;7658;51.456;7.622;2022-07-10T05:59:34;14.30;99.90
15115;DHT22;7658;51.456;7.622;2022-07-10T06:02:01;14.40;99.90
15115;DHT22;7658;51.456;7.622;2022-07-10T06:04:27;14.50;99.90
15115;DHT22;7658;51.456;7.622;2022-07-10T06:06:53;14.70;99.90
15115;DHT22;7658;51.456;7.622;2022-07-10T06:09:18;14.70;99.90
15115;DHT22;7658;51.456;7.622;2022-07-10T06:11:44;14.70;99.90
15115;DHT22;7658;51.456;7.622;2022-07-10T06:14:14;14.70;99.90
15115;DHT22;7658;51.456;7.622;2022-07-10T06:16:40;14.70;99.90
15115;DHT22;7658;51.456;7.622;2022-07-10T06:19:06;14.80;99.90
15115;DHT22;7658;51.456;7.622;2022-07-10T06:21:31;14.80;99.90
15115;DHT22;7658;51.456;7.622;2022-07-10T06:23:57;14.80;99.90
15115;DHT22;7658;51.456;7.622;2022-07-10T06:26:24;14.70;99.90
15115;DHT22;7658;51.456;7.622;2022-07-10T06:28:50;14.70;99.90
15115;DHT22;7658;51.456;7.622;2022-07-10T06:31:16;14.70;99.90
15115;DHT22;7658;51.456;7.622;2022-07-10T06:33:42;14.70;99.90
15115;DHT22;7658;51.456;7.622;2022-07-10T06:36:07;14.70;99.90
15115;DHT22;7658;51.456;7.622;2022-07-10T06:38:33;14.70;99.90
15115;DHT22;7658;51.456;7.622;2022-07-10T06:40:59;14.70;99.90
15115;DHT22;7658;51.456;7.622;2022-07-10T06:43:26;14.80;99.90
15115;DHT22;7658;51.456;7.622;2022-07-10T06:45:52;14.80;99.90
15115;DHT22;7658;51.456;7.622;2022-07-10T06:48:18;14.90;99.90
15115;DHT22;7658;51.456;7.622;2022-07-10T06:50:44;14.80;99.90
15115;DHT22;7658;51.456;7.622;2022-07-10T06:53:10;14.90;99.90
15115;DHT22;7658;51.456;7.622;2022-07-10T06:55:37;14.90;99.90
15115;DHT22;7658;51.456;7.622;2022-07-10T06:58:03;15.00;99.90
15115;DHT22;7658;51.456;7.622;2022-07-10T07:00:29;15.10;99.90
15115;DHT22;7658;51.456;7.622;2022-07-10T07:02:55;15.20;99.90
15115;DHT22;7658;51.456;7.622;2022-07-10T07:05:21;15.30;99.90
15115;DHT22;7658;51.456;7.622;2022-07-10T07:07:47;15.40;99.90
15115;DHT22;7658;51.456;7.622;2022-07-10T07:10:13;15.50;99.90
15115;DHT22;7658;51.456;7.622;2022-07-10T07:12:38;15.60;99.90
15115;DHT22;7658;51.456;7.622;2022-07-10T07:15:05;15.70;99.90
15115;DHT22;7658;51.456;7.622;2022-07-10T07:17:31;15.80;99.90
15115;DHT22;7658;51.456;7.622;2022-07-10T07:20:02;15.80;99.90
15115;DHT22;7658;51.456;7.622;2022-07-10T07:22:47;15.80;99.90
15115;DHT22;7658;51.456;7.622;2022-07-10T07:25:31;15.80;99.90
15115;DHT22;7658;51.456;7.622;2022-07-10T07:27:57;15.70;99.90
15115;DHT22;7658;51.456;7.622;2022-07-10T07:30:23;15.50;99.90
15115;DHT22;7658;51.456;7.622;2022-07-10T07:32:48;15.40;99.90
15115;DHT22;7658;51.456;7.622;2022-07-10T07:35:15;15.30;99.90
15115;DHT22;7658;51.456;7.622;2022-07-10T07:37:47;15.20;99.90
15115;DHT22;7658;51.456;7.622;2022-07-10T07:40:23;15.10;99.90
15115;DHT22;7658;51.456;7.622;2022-07-10T07:42:50;15.00;99.90
15115;DHT22;7658;51.456;7.622;2022-07-10T07:45:16;14.90;99.90
15115;DHT22;7658;51.456;7.622;2022-07-10T07:47:53;15.00;99.90
15115;DHT22;7658;51.456;7.622;2022-07-10T07:50:23;14.90;99.90
15115;DHT22;7658;51.456;7.622;2022-07-10T07:52:49;15.00;99.90
15115;DHT22;7658;51.456;7.622;2022-07-10T07:55:16;15.00;99.90
15115;DHT22;7658;51.456;7.622;2022-07-10T07:57:43;15.00;99.90
15115;DHT22;7658;51.456;7.622;2022-07-10T08:00:10;15.10;99.90
15115;DHT22;7658;51.456;7.622;2022-07-10T08:02:36;15.20;99.90
15115;DHT22;7658;51.456;7.622;2022-07-10T08:05:03;15.20;99.90
15115;DHT22;7658;51.456;7.622;2022-07-10T08:07:56;15.20;99.90
15115;DHT22;7658;51.456;7.622;2022-07-10T08:10:25;15.20;99.90
15115;DHT22;7658;51.456;7.622;2022-07-10T08:12:54;15.20;99.90
15115;DHT22;7658;51.456;7.622;2022-07-10T08:15:21;15.10;99.90
15115;DHT22;7658;51.456;7.622;2022-07-10T08:17:51;15.00;99.90
15115;DHT22;7658;51.456;7.622;2022-07-10T08:20:18;14.90;99.90
15115;DHT22;7658;51.456;7.622;2022-07-10T08:22:43;14.80;99.90
15115;DHT22;7658;51.456;7.622;2022-07-10T08:25:10;14.80;99.90
15115;DHT22;7658;51.456;7.622;2022-07-10T08:27:36;14.80;99.90
15115;DHT22;7658;51.456;7.622;2022-07-10T08:30:03;14.70;99.90
15115;DHT22;7658;51.456;7.622;2022-07-10T08:32:29;14.70;99.90
15115;DHT22;7658;51.456;7.622;2022-07-10T08:34:55;14.70;99.90
15115;DHT22;7658;51.456;7.622;2022-07-10T08:37:21;14.70;99.90
15115;DHT22;7658;51.456;7.622;2022-07-10T08:39:46;14.70;99.90
15115;DHT22;7658;51.456;7.622;2022-07-10T08:42:12;14.70;99.90
15115;DHT22;7658;51.456;7.622;2022-07-10T08:44:40;14.60;99.90
15115;DHT22;7658;51.456;7.622;2022-07-10T08:47:06;14.60;99.90
15115;DHT22;7658;51.456;7.622;2022-07-10T08:49:32;14.60;99.90
15115;DHT22;7658;51.456;7.622;2022-07-10T08:52:04;14.50;99.90
15115;DHT22;7658;51.456;7.622;2022-07-10T08:54:32;14.40;99.90
15115;DHT22;7658;51.456;7.622;2022-07-10T08:56:59;14.50;99.90
15115;DHT22;7658;51.456;7.622;2022-07-10T08:59:25;14.50;99.90
15115;DHT22;7658;51.456;7.622;2022-07-10T09:01:51;14.50;99.90
15115;DHT22;7658;51.456;7.622;2022-07-10T09:04:21;14.50;99.90
15115;DHT22;7658;51.456;7.622;2022-07-10T09:06:47;14.60;99.90
15115;DHT22;7658;51.456;7.622;2022-07-10T09:09:13;14.60;99.90
15115;DHT22;7658;51.456;7.622;2022-07-10T09:11:40;14.70;99.90
15115;DHT22;7658;51.456;7.622;2022-07-10T09:14:14;14.70;99.90
15115;DHT22;7658;51.456;7.622;2022-07-10T09:16:41;14.80;99.90
15115;DHT22;7658;51.456;7.622;2022-07-10T09:19:18;14.90;99.90
15115;DHT22;7658;51.456;7.622;2022-07-10T09:21:50;15.00;99.90
15115;DHT22;7658;51.456;7.622;2022-07-10T09:24:16;14.90;99.90
15115;DHT22;7658;51.456;7.622;2022-07-10T09:29:20;15.00;99.90
15115;DHT22;7658;51.456;7.622;2022-07-10T09:31:49;15.00;99.90
15115;DHT22;7658;51.456;7.622;2022-07-10T09:37:24;15.10;99.90
15115;DHT22;7658;51.456;7.622;2022-07-10T09:40:01;15.00;99.90
15115;DHT22;7658;51.456;7.622;2022-07-10T09:42:41;14.90;99.90
15115;DHT22;7658;51.456;7.622;2022-07-10T09:47:53;14.70;99.90
15115;DHT22;7658;51.456;7.622;2022-07-10T09:50:35;14.70;99.90
15115;DHT22;7658;51.456;7.622;2022-07-10T09:53:08;14.90;99.90
15115;DHT22;7658;51.456;7.622;2022-07-10T09:55:38;15.00;99.90
15115;DHT22;7658;51.456;7.622;2022-07-10T09:58:08;15.10;99.90
15115;DHT22;7658;51.456;7.622;2022-07-10T10:00:39;15.20;99.90
15115;DHT22;7658;51.456;7.622;2022-07-10T10:03:11;15.30;99.90
15115;DHT22;7658;51.456;7.622;2022-07-10T10:05:58;15.20;99.90
15115;DHT22;7658;51.456;7.622;2022-07-10T10:08:42;15.30;99.90
15115;DHT22;7658;51.456;7.622;2022-07-10T10:11:14;15.30;99.90
15115;DHT22;7658;51.456;7.622;2022-07-10T10:13:41;15.40;99.90
15115;DHT22;7658;51.456;7.622;2022-07-10T10:16:09;15.50;99.90
15115;DHT22;7658;51.456;7.622;2022-07-10T10:18:36;15.50;99.90
15115;DHT22;7658;51.456;7.622;2022-07-10T10:21:22;15.50;99.90
15115;DHT22;7658;51.456;7.622;2022-07-10T10:23:49;15.50;99.90
15115;DHT22;7658;51.456;7.622;2022-07-10T10:26:16;15.40;99.90
15115;DHT22;7658;51.456;7.622;2022-07-10T10:28:43;15.30;99.90
15115;DHT22;7658;51.456;7.622;2022-07-10T10:31:10;15.20;99.90
15115;DHT22;7658;51.456;7.622;2022-07-10T10:36:05;15.10;99.90
15115;DHT22;7658;51.456;7.622;2022-07-10T10:41:25;15.30;99.90
15115;DHT22;7658;51.456;7.622;2022-07-10T10:46:52;15.40;99.90
15115;DHT22;7658;51.456;7.622;2022-07-10T10:49:20;15.30;99.90
15115;DHT22;7658;51.456;7.622;2022-07-10T10:52:02;15.20;99.90
15115;DHT22;7658;51.456;7.622;2022-07-10T10:54:30;15.20;99.90
15115;DHT22;7658;51.456;7.622;2022-07-10T10:57:16;15.20;99.90
15115;DHT22;7658;51.456;7.622;2022-07-10T11:02:34;15.30;99.90
15115;DHT22;7658;51.456;7.622;2022-07-10T11:10:40;15.50;99.90
15115;DHT22;7658;51.456;7.622;2022-07-10T11:13:08;15.60;99.90
15115;DHT22;7658;51.456;7.622;2022-07-10T11:15:43;15.50;99.90
15115;DHT22;7658;51.456;7.622;2022-07-10T11:18:13;15.40;99.90
15115;DHT22;7658;51.456;7.622;2022-07-10T11:20:42;15.40;99.90
15115;DHT22;7658;51.456;7.622;2022-07-10T11:26:35;15.60;99.90
15115;DHT22;7658;51.456;7.622;2022-07-10T11:29:04;15.70;99.90
15115;DHT22;7658;51.456;7.622;2022-07-10T11:31:33;15.60;99.90
15115;DHT22;7658;51.456;7.622;2022-07-10T11:34:10;15.50;99.90
15115;DHT22;7658;51.456;7.622;2022-07-10T11:36:39;15.40;99.90
15115;DHT22;7658;51.456;7.622;2022-07-10T11:39:07;15.30;99.90
15115;DHT22;7658;51.456;7.622;2022-07-10T11:41:34;15.30;99.90
15115;DHT22;7658;51.456;7.622;2022-07-10T11:44:02;15.30;99.90
15115;DHT22;7658;51.456;7.622;2022-07-10T11:46:34;15.30;99.90
15115;DHT22;7658;51.456;7.622;2022-07-10T11:49:04;15.40;99.90
15115;DHT22;7658;51.456;7.622;2022-07-10T11:51:36;15.50;99.90
15115;DHT22;7658;51.456;7.622;2022-07-10T11:54:09;15.60;99.90
15115;DHT22;7658;51.456;7.622;2022-07-10T11:56:41;15.70;99.90
15115;DHT22;7658;51.456;7.622;2022-07-10T11:59:09;15.70;99.90
15115;DHT22;7658;51.456;7.622;2022-07-10T12:01:46;15.70;99.90
15115;DHT22;7658;51.456;7.622;2022-07-10T12:04:14;15.60;99.90
15115;DHT22;7658;51.456;7.622;2022-07-10T12:06:43;15.60;99.90
15115;DHT22;7658;51.456;7.622;2022-07-10T12:09:13;15.60;99.90
15115;DHT22;7658;51.456;7.622;2022-07-10T12:12:01;15.50;99.90
15115;DHT22;7658;51.456;7.622;2022-07-10T12:14:28;15.40;99.90
15115;DHT22;7658;51.456;7.622;2022-07-10T12:16:55;15.50;99.90
15115;DHT22;7658;51.456;7.622;2022-07-10T12:19:30;15.50;99.90
15115;DHT22;7658;51.456;7.622;2022-07-10T12:21:57;15.60;99.90
15115;DHT22;7658;51.456;7.622;2022-07-10T12:24:37;15.80;99.90
15115;DHT22;7658;51.456;7.622;2022-07-10T12:30:09;15.90;99.90
15115;DHT22;7658;51.456;7.622;2022-07-10T12:32:46;15.90;99.90
15115;DHT22;7658;51.456;7.622;2022-07-10T12:35:12;15.80;99.90
15115;DHT22;7658;51.456;7.622;2022-07-10T12:37:49;15.80;99.90
15115;DHT22;7658;51.456;7.622;2022-07-10T12:40:32;15.80;99.90
15115;DHT22;7658;51.456;7.622;2022-07-10T12:43:03;15.70;99.90
15115;DHT22;7658;51.456;7.622;2022-07-10T12:45:29;15.70;99.90
15115;DHT22;7658;51.456;7.622;2022-07-10T12:47:54;15.60;99.90
15115;DHT22;7658;51.456;7.622;2022-07-10T12:50:20;15.60;99.90
15115;DHT22;7658;51.456;7.622;2022-07-10T12:52:46;15.60;99.90
15115;DHT22;7658;51.456;7.622;2022-07-10T12:55:21;15.60;99.90
15115;DHT22;7658;51.456;7.622;2022-07-10T13:00:14;15.70;99.90
15115;DHT22;7658;51.456;7.622;2022-07-10T13:02:40;15.70;99.90
15115;DHT22;7658;51.456;7.622;2022-07-10T13:05:07;15.80;99.90
15115;DHT22;7658;51.456;7.622;2022-07-10T13:07:34;15.90;99.90
15115;DHT22;7658;51.456;7.622;2022-07-10T13:10:05;16.00;99.90
15115;DHT22;7658;51.456;7.622;2022-07-10T13:12:32;16.20;99.90
15115;DHT22;7658;51.456;7.622;2022-07-10T13:14:58;16.30;99.90
15115;DHT22;7658;51.456;7.622;2022-07-10T13:17:24;16.40;99.90
15115;DHT22;7658;51.456;7.622;2022-07-10T13:19:51;16.60;99.90
15115;DHT22;7658;51.456;7.622;2022-07-10T13:22:17;16.70;99.90
15115;DHT22;7658;51.456;7.622;2022-07-10T13:24:43;16.70;99.90
15115;DHT22;7658;51.456;7.622;2022-07-10T13:27:09;16.80;99.90
15115;DHT22;7658;51.456;7.622;2022-07-10T13:29:35;16.90;99.90
15115;DHT22;7658;51.456;7.622;2022-07-10T13:32:02;16.90;99.90
15115;DHT22;7658;51.456;7.622;2022-07-10T13:34:28;16.90;99.90
15115;DHT22;7658;51.456;7.622;2022-07-10T13:36:55;17.00;99.90
15115;DHT22;7658;51.456;7.622;2022-07-10T13:39:21;17.20;99.90
15115;DHT22;7658;51.456;7.622;2022-07-10T13:41:47;17.30;99.90
15115;DHT22;7658;51.456;7.622;2022-07-10T13:44:12;17.40;99.90
15115;DHT22;7658;51.456;7.622;2022-07-10T13:46:38;17.50;99.90
15115;DHT22;7658;51.456;7.622;2022-07-10T13:49:06;17.70;99.90
15115;DHT22;7658;51.456;7.622;2022-07-10T13:51:32;17.70;99.90
15115;DHT22;7658;51.456;7.622;2022-07-10T13:53:57;17.80;99.90
15115;DHT22;7658;51.456;7.622;2022-07-10T13:56:23;17.90;99.90
15115;DHT22;7658;51.456;7.622;2022-07-10T13:58:51;17.80;99.90
15115;DHT22;7658;51.456;7.622;2022-07-10T14:01:17;17.80;99.90
15115;DHT22;7658;51.456;7.622;2022-07-10T14:03:43;17.70;99.90
15115;DHT22;7658;51.456;7.622;2022-07-10T14:06:08;17.60;99.90
15115;DHT22;7658;51.456;7.622;2022-07-10T14:08:36;17.50;99.90
15115;DHT22;7658;51.456;7.622;2022-07-10T14:11:02;17.50;99.90
15115;DHT22;7658;51.456;7.622;2022-07-10T14:13:28;17.50;99.90
15115;DHT22;7658;51.456;7.622;2022-07-10T14:15:54;17.60;99.90
15115;DHT22;7658;51.456;7.622;2022-07-10T14:18:20;17.80;99.90
15115;DHT22;7658;51.456;7.622;2022-07-10T14:21:08;18.00;99.90
15115;DHT22;7658;51.456;7.622;2022-07-10T14:23:36;18.10;99.90
15115;DHT22;7658;51.456;7.622;2022-07-10T14:26:02;18.10;99.90
15115;DHT22;7658;51.456;7.622;2022-07-10T14:28:29;18.00;99.90
15115;DHT22;7658;51.456;7.622;2022-07-10T14:30:55;17.80;99.90
15115;DHT22;7658;51.456;7.622;2022-07-10T14:33:21;17.70;99.90
15115;DHT22;7658;51.456;7.622;2022-07-10T14:35:46;17.70;99.90
15115;DHT22;7658;51.456;7.622;2022-07-10T14:38:12;17.90;99.90
15115;DHT22;7658;51.456;7.622;2022-07-10T14:40:38;18.10;99.90
15115;DHT22;7658;51.456;7.622;2022-07-10T14:43:04;18.10;99.90
15115;DHT22;7658;51.456;7.622;2022-07-10T14:45:29;18.00;99.90
15115;DHT22;7658;51.456;7.622;2022-07-10T14:47:55;17.80;99.90
15115;DHT22;7658;51.456;7.622;2022-07-10T14:50:22;17.60;99.90
15115;DHT22;7658;51.456;7.622;2022-07-10T14:52:48;17.50;99.90
15115;DHT22;7658;51.456;7.622;2022-07-10T14:55:14;17.50;99.90
15115;DHT22;7658;51.456;7.622;2022-07-10T14:57:40;17.50;99.90
15115;DHT22;7658;51.456;7.622;2022-07-10T15:00:06;17.60;99.90
15115;DHT22;7658;51.456;7.622;2022-07-10T15:02:32;17.70;99.90
15115;DHT22;7658;51.456;7.622;2022-07-10T15:04:58;17.70;99.90
15115;DHT22;7658;51.456;7.622;2022-07-10T15:07:24;17.70;99.90
15115;DHT22;7658;51.456;7.622;2022-07-10T15:09:49;17.70;99.90
15115;DHT22;7658;51.456;7.622;2022-07-10T15:12:15;17.60;99.90
15115;DHT22;7658;51.456;7.622;2022-07-10T15:14:41;17.50;99.90
15115;DHT22;7658;51.456;7.622;2022-07-10T15:17:07;17.50;99.90
15115;DHT22;7658;51.456;7.622;2022-07-10T15:19:32;17.50;99.90
15115;DHT22;7658;51.456;7.622;2022-07-10T15:21:58;17.50;99.90
15115;DHT22;7658;51.456;7.622;2022-07-10T15:24:24;17.40;99.90
15115;DHT22;7658;51.456;7.622;2022-07-10T15:26:49;17.30;99.90
15115;DHT22;7658;51.456;7.622;2022-07-10T15:29:16;17.30;99.90
15115;DHT22;7658;51.456;7.622;2022-07-10T15:31:42;17.20;99.90
15115;DHT22;7658;51.456;7.622;2022-07-10T15:34:10;17.00;99.90
15115;DHT22;7658;51.456;7.622;2022-07-10T15:36:40;16.80;99.90
15115;DHT22;7658;51.456;7.622;2022-07-10T15:39:05;16.70;99.90
15115;DHT22;7658;51.456;7.622;2022-07-10T15:41:31;16.60;99.90
15115;DHT22;7658;51.456;7.622;2022-07-10T15:43:59;16.50;99.90
15115;DHT22;7658;51.456;7.622;2022-07-10T15:46:25;16.40;99.90
15115;DHT22;7658;51.456;7.622;2022-07-10T15:48:51;16.50;99.90
15115;DHT22;7658;51.456;7.622;2022-07-10T15:51:17;16.50;99.90
15115;DHT22;7658;51.456;7.622;2022-07-10T15:53:43;16.50;99.90
15115;DHT22;7658;51.456;7.622;2022-07-10T15:56:09;16.50;99.90
15115;DHT22;7658;51.456;7.622;2022-07-10T15:58:34;16.60;99.90
15115;DHT22;7658;51.456;7.622;2022-07-10T16:01:00;16.60;99.90
15115;DHT22;7658;51.456;7.622;2022-07-10T16:03:26;16.60;99.90
15115;DHT22;7658;51.456;7.622;2022-07-10T16:05:52;16.60;99.90
15115;DHT22;7658;51.456;7.622;2022-07-10T16:08:17;16.70;99.90
15115;DHT22;7658;51.456;7.622;2022-07-10T16:10:46;16.80;99.90
15115;DHT22;7658;51.456;7.622;2022-07-10T16:13:12;17.00;99.90
15115;DHT22;7658;51.456;7.622;2022-07-10T16:15:38;17.10;99.90
15115;DHT22;7658;51.456;7.622;2022-07-10T16:18:04;17.30;99.90
15115;DHT22;7658;51.456;7.622;2022-07-10T16:20:30;17.40;99.90